DLH14G LZIB-EDDL
Flight info
| Callsign | DLH14G |
|---|---|
| Flight time | 1h 15m |
| Altitude | 36000 |
| Route | BERVA M748 ODNEM DCT RAPET DCT MASEK DCT AMETU T852 TINSA T854 DOMUX DOMUX1A |
| Aircraft | A21N/M-SDE3FGHIRWY/LB1 |
Departure
| Time | 2026-05-04 17:14 |
|---|---|
| Airport | M. R. Štefánik Airport (LZIB) |
Arrival
| Time | 2026-05-04 18:29 |
|---|---|
| Airport | Düsseldorf Airport (EDDL) |
| Time | Latitude | Longitude | Altitude | Speed | Heading |
|---|---|---|---|---|---|
| 2026-05-04 16:41 | 48.17129 | 17.20385 | 433 ft | 0 kts | 314° |
| 2026-05-04 17:05 | 48.17115 | 17.20405 | 433 ft | 2 kts | 314° |
| 2026-05-04 17:05 | 48.17094 | 17.20437 | 432 ft | 2 kts | 338° |
| 2026-05-04 17:06 | 48.17066 | 17.20430 | 433 ft | 2 kts | 46° |
| 2026-05-04 17:06 | 48.17056 | 17.20414 | 433 ft | 2 kts | 43° |
| 2026-05-04 17:07 | 48.17050 | 17.20406 | 433 ft | 0 kts | 41° |
| 2026-05-04 17:09 | 48.17054 | 17.20410 | 433 ft | 1 kts | 42° |
| 2026-05-04 17:09 | 48.17062 | 17.20423 | 433 ft | 2 kts | 44° |
| 2026-05-04 17:09 | 48.17080 | 17.20449 | 432 ft | 4 kts | 44° |
| 2026-05-04 17:10 | 48.17149 | 17.20549 | 431 ft | 7 kts | 42° |
| 2026-05-04 17:10 | 48.17279 | 17.20484 | 433 ft | 7 kts | 312° |
| 2026-05-04 17:11 | 48.17314 | 17.20427 | 434 ft | 7 kts | 312° |
| 2026-05-04 17:11 | 48.17350 | 17.20370 | 434 ft | 7 kts | 314° |
| 2026-05-04 17:11 | 48.17456 | 17.20309 | 434 ft | 9 kts | 21° |
| 2026-05-04 17:12 | 48.17515 | 17.20356 | 434 ft | 10 kts | 44° |
| 2026-05-04 17:12 | 48.17460 | 17.20566 | 431 ft | 22 kts | 134° |
| 2026-05-04 17:13 | 48.15796 | 17.23146 | 925 ft | 161 kts | 136° |
| 2026-05-04 17:14 | 48.13508 | 17.26819 | 2494 ft | 184 kts | 138° |
| 2026-05-04 17:14 | 48.12590 | 17.28268 | 2900 ft | 198 kts | 137° |
| 2026-05-04 17:14 | 48.10953 | 17.31677 | 3970 ft | 218 kts | 107° |
| 2026-05-04 17:15 | 48.11057 | 17.33954 | 4533 ft | 231 kts | 75° |
| 2026-05-04 17:15 | 48.13625 | 17.36934 | 5056 ft | 277 kts | 359° |
| 2026-05-04 17:16 | 48.17561 | 17.35756 | 6230 ft | 293 kts | 347° |
| 2026-05-04 17:16 | 48.23521 | 17.34078 | 8433 ft | 297 kts | 347° |
| 2026-05-04 17:17 | 48.25576 | 17.33508 | 9153 ft | 300 kts | 348° |
| 2026-05-04 17:17 | 48.31825 | 17.31775 | 10751 ft | 322 kts | 347° |
| 2026-05-04 17:18 | 48.34074 | 17.31149 | 11038 ft | 337 kts | 347° |
| 2026-05-04 17:18 | 48.38877 | 17.29812 | 11661 ft | 366 kts | 347° |
| 2026-05-04 17:19 | 48.43939 | 17.28408 | 12793 ft | 373 kts | 347° |
| 2026-05-04 17:19 | 48.49065 | 17.26981 | 13965 ft | 379 kts | 347° |
| 2026-05-04 17:20 | 48.54342 | 17.25503 | 14895 ft | 389 kts | 347° |
| 2026-05-04 17:20 | 48.59682 | 17.24007 | 15954 ft | 394 kts | 347° |
| 2026-05-04 17:20 | 48.62363 | 17.23253 | 16460 ft | 396 kts | 347° |
| 2026-05-04 17:21 | 48.67790 | 17.21727 | 17454 ft | 400 kts | 347° |
| 2026-05-04 17:21 | 48.73280 | 17.20178 | 18386 ft | 405 kts | 347° |
| 2026-05-04 17:22 | 48.76043 | 17.19397 | 18845 ft | 407 kts | 347° |
| 2026-05-04 17:22 | 48.78828 | 17.18609 | 19276 ft | 409 kts | 347° |
| 2026-05-04 17:23 | 48.86260 | 17.13247 | 20504 ft | 405 kts | 306° |
| 2026-05-04 17:23 | 48.87642 | 17.09545 | 20926 ft | 403 kts | 294° |
| 2026-05-04 17:23 | 48.89965 | 17.01774 | 21658 ft | 409 kts | 294° |
| 2026-05-04 17:24 | 48.91153 | 16.97803 | 21994 ft | 411 kts | 294° |
| 2026-05-04 17:24 | 48.94730 | 16.85915 | 23048 ft | 416 kts | 294° |
| 2026-05-04 17:25 | 48.95927 | 16.81941 | 23388 ft | 417 kts | 294° |
| 2026-05-04 17:25 | 48.98349 | 16.73893 | 24070 ft | 420 kts | 294° |
| 2026-05-04 17:26 | 49.00785 | 16.65773 | 24715 ft | 423 kts | 294° |
| 2026-05-04 17:26 | 49.04452 | 16.53501 | 25590 ft | 428 kts | 294° |
| 2026-05-04 17:27 | 49.06911 | 16.45235 | 26126 ft | 431 kts | 295° |
| 2026-05-04 17:27 | 49.09374 | 16.36929 | 26644 ft | 434 kts | 295° |
| 2026-05-04 17:28 | 49.11871 | 16.28484 | 27135 ft | 437 kts | 294° |
| 2026-05-04 17:29 | 49.15583 | 16.15869 | 28060 ft | 436 kts | 294° |
| 2026-05-04 17:29 | 49.19277 | 16.03246 | 29157 ft | 432 kts | 294° |
| 2026-05-04 17:30 | 49.22915 | 15.90752 | 30187 ft | 429 kts | 294° |
| 2026-05-04 17:31 | 49.25317 | 15.82462 | 30881 ft | 426 kts | 294° |
| 2026-05-04 17:31 | 49.28872 | 15.70150 | 31902 ft | 422 kts | 294° |
| 2026-05-04 17:32 | 49.31226 | 15.61958 | 32523 ft | 421 kts | 294° |
| 2026-05-04 17:33 | 49.34743 | 15.49675 | 33452 ft | 418 kts | 293° |
| 2026-05-04 17:33 | 49.35902 | 15.45616 | 33742 ft | 417 kts | 293° |
| 2026-05-04 17:34 | 49.39359 | 15.33450 | 34475 ft | 418 kts | 292° |
| 2026-05-04 17:34 | 49.40517 | 15.29360 | 34666 ft | 419 kts | 292° |
| 2026-05-04 17:35 | 49.43986 | 15.17069 | 35189 ft | 421 kts | 292° |
| 2026-05-04 17:35 | 49.46305 | 15.08818 | 35517 ft | 423 kts | 292° |
| 2026-05-04 17:35 | 49.47465 | 15.04683 | 35659 ft | 424 kts | 292° |
| 2026-05-04 17:36 | 49.48629 | 15.00524 | 35780 ft | 425 kts | 292° |
| 2026-05-04 17:36 | 49.49801 | 14.96330 | 35905 ft | 426 kts | 292° |
| 2026-05-04 17:36 | 49.50966 | 14.92150 | 35948 ft | 428 kts | 292° |
| 2026-05-04 17:37 | 49.53305 | 14.83746 | 35956 ft | 428 kts | 292° |
| 2026-05-04 17:37 | 49.55634 | 14.75345 | 35961 ft | 428 kts | 291° |
| 2026-05-04 17:38 | 49.57939 | 14.66998 | 35963 ft | 427 kts | 291° |
| 2026-05-04 17:38 | 49.60255 | 14.58583 | 35961 ft | 427 kts | 291° |
| 2026-05-04 17:39 | 49.63699 | 14.46010 | 35956 ft | 427 kts | 291° |
| 2026-05-04 17:39 | 49.65990 | 14.37607 | 35954 ft | 427 kts | 291° |
| 2026-05-04 17:40 | 49.68282 | 14.29174 | 35955 ft | 427 kts | 290° |
| 2026-05-04 17:40 | 49.70568 | 14.20735 | 35951 ft | 426 kts | 290° |
| 2026-05-04 17:41 | 49.72830 | 14.12349 | 35946 ft | 425 kts | 290° |
| 2026-05-04 17:41 | 49.75098 | 14.03914 | 35947 ft | 425 kts | 290° |
| 2026-05-04 17:42 | 49.77354 | 13.95491 | 35947 ft | 424 kts | 290° |
| 2026-05-04 17:42 | 49.79597 | 13.87087 | 35950 ft | 424 kts | 290° |
| 2026-05-04 17:43 | 49.81833 | 13.78673 | 35950 ft | 424 kts | 290° |
| 2026-05-04 17:43 | 49.84062 | 13.70263 | 35953 ft | 425 kts | 290° |
| 2026-05-04 17:44 | 49.86289 | 13.61823 | 35951 ft | 425 kts | 290° |
| 2026-05-04 17:44 | 49.88510 | 13.53377 | 35950 ft | 425 kts | 290° |
| 2026-05-04 17:45 | 49.90725 | 13.44925 | 35948 ft | 425 kts | 290° |
| 2026-05-04 17:45 | 49.92946 | 13.36420 | 35947 ft | 425 kts | 290° |
| 2026-05-04 17:46 | 49.95153 | 13.27930 | 35945 ft | 425 kts | 289° |
| 2026-05-04 17:46 | 49.97352 | 13.19445 | 35946 ft | 425 kts | 289° |
| 2026-05-04 17:47 | 49.99536 | 13.10983 | 35951 ft | 425 kts | 289° |
| 2026-05-04 17:47 | 50.01716 | 13.02504 | 35965 ft | 425 kts | 289° |
| 2026-05-04 17:48 | 50.03898 | 12.93990 | 35979 ft | 425 kts | 289° |
| 2026-05-04 17:48 | 50.06081 | 12.85432 | 35979 ft | 426 kts | 289° |
| 2026-05-04 17:49 | 50.08251 | 12.76896 | 35977 ft | 426 kts | 289° |
| 2026-05-04 17:49 | 50.10418 | 12.68336 | 35973 ft | 426 kts | 289° |
| 2026-05-04 17:50 | 50.12569 | 12.59805 | 35964 ft | 426 kts | 289° |
| 2026-05-04 17:50 | 50.14726 | 12.51221 | 35959 ft | 426 kts | 289° |
| 2026-05-04 17:51 | 50.16867 | 12.42655 | 35952 ft | 426 kts | 289° |
| 2026-05-04 17:51 | 50.19001 | 12.34023 | 35950 ft | 425 kts | 287° |
| 2026-05-04 17:52 | 50.20868 | 12.25337 | 35955 ft | 425 kts | 285° |
| 2026-05-04 17:52 | 50.22699 | 12.16592 | 35963 ft | 425 kts | 285° |
| 2026-05-04 17:53 | 50.24515 | 12.07873 | 35965 ft | 426 kts | 285° |
| 2026-05-04 17:53 | 50.26332 | 11.99115 | 35968 ft | 426 kts | 285° |
| 2026-05-04 17:54 | 50.28146 | 11.90323 | 35972 ft | 426 kts | 285° |
| 2026-05-04 17:54 | 50.29960 | 11.81506 | 35980 ft | 426 kts | 285° |
| 2026-05-04 17:55 | 50.31759 | 11.72725 | 35977 ft | 425 kts | 285° |
| 2026-05-04 17:55 | 50.33535 | 11.64014 | 35976 ft | 424 kts | 285° |
| 2026-05-04 17:56 | 50.35321 | 11.55213 | 35975 ft | 423 kts | 285° |
| 2026-05-04 17:56 | 50.37083 | 11.46494 | 35968 ft | 422 kts | 285° |
| 2026-05-04 17:57 | 50.38847 | 11.37730 | 35973 ft | 423 kts | 285° |
| 2026-05-04 17:57 | 50.40603 | 11.28957 | 35974 ft | 422 kts | 284° |
| 2026-05-04 17:58 | 50.42341 | 11.20229 | 35973 ft | 421 kts | 284° |
| 2026-05-04 17:58 | 50.44081 | 11.11463 | 35974 ft | 421 kts | 284° |
| 2026-05-04 17:59 | 50.45800 | 11.02761 | 35974 ft | 421 kts | 284° |
| 2026-05-04 18:00 | 50.48380 | 10.89630 | 35965 ft | 420 kts | 284° |
| 2026-05-04 18:00 | 50.50086 | 10.80903 | 35958 ft | 419 kts | 284° |
| 2026-05-04 18:01 | 50.51775 | 10.72218 | 35954 ft | 419 kts | 284° |
| 2026-05-04 18:01 | 50.53463 | 10.63495 | 35954 ft | 420 kts | 284° |
| 2026-05-04 18:02 | 50.55985 | 10.50381 | 35949 ft | 419 kts | 284° |
| 2026-05-04 18:02 | 50.57663 | 10.41611 | 35948 ft | 419 kts | 284° |
| 2026-05-04 18:03 | 50.59335 | 10.32836 | 35955 ft | 420 kts | 283° |
| 2026-05-04 18:03 | 50.60989 | 10.24107 | 35962 ft | 419 kts | 283° |
| 2026-05-04 18:04 | 50.62645 | 10.15328 | 35964 ft | 419 kts | 283° |
| 2026-05-04 18:05 | 50.65110 | 10.02185 | 35966 ft | 419 kts | 283° |
| 2026-05-04 18:05 | 50.67031 | 9.93520 | 35968 ft | 424 kts | 291° |
| 2026-05-04 18:06 | 50.70937 | 9.81028 | 35966 ft | 425 kts | 292° |
| 2026-05-04 18:06 | 50.73506 | 9.72726 | 35967 ft | 424 kts | 292° |
| 2026-05-04 18:07 | 50.76079 | 9.64320 | 35966 ft | 425 kts | 291° |
| 2026-05-04 18:07 | 50.78727 | 9.55985 | 35964 ft | 426 kts | 293° |
| 2026-05-04 18:08 | 50.81419 | 9.47724 | 35964 ft | 426 kts | 293° |
| 2026-05-04 18:08 | 50.82775 | 9.43541 | 35678 ft | 428 kts | 293° |
| 2026-05-04 18:08 | 50.84125 | 9.39357 | 35333 ft | 424 kts | 293° |
| 2026-05-04 18:09 | 50.86763 | 9.31152 | 34591 ft | 417 kts | 292° |
| 2026-05-04 18:09 | 50.89362 | 9.23013 | 33760 ft | 417 kts | 292° |
| 2026-05-04 18:10 | 50.90663 | 9.18929 | 33343 ft | 418 kts | 292° |
| 2026-05-04 18:10 | 50.91979 | 9.14788 | 32924 ft | 419 kts | 292° |
| 2026-05-04 18:10 | 50.93281 | 9.10691 | 32512 ft | 420 kts | 292° |
| 2026-05-04 18:10 | 50.94593 | 9.06561 | 32096 ft | 421 kts | 292° |
| 2026-05-04 18:11 | 50.95897 | 9.02454 | 31686 ft | 422 kts | 292° |
| 2026-05-04 18:11 | 50.97224 | 8.98268 | 31270 ft | 423 kts | 292° |
| 2026-05-04 18:11 | 50.98525 | 8.94157 | 30866 ft | 424 kts | 292° |
| 2026-05-04 18:11 | 50.99846 | 8.89972 | 30448 ft | 426 kts | 292° |
| 2026-05-04 18:12 | 51.01162 | 8.85790 | 29785 ft | 428 kts | 292° |
| 2026-05-04 18:12 | 51.02491 | 8.81560 | 29104 ft | 430 kts | 292° |
| 2026-05-04 18:12 | 51.03832 | 8.77281 | 28419 ft | 432 kts | 292° |
| 2026-05-04 18:12 | 51.05160 | 8.73034 | 27748 ft | 435 kts | 292° |
| 2026-05-04 18:13 | 51.06506 | 8.68723 | 27068 ft | 436 kts | 293° |
| 2026-05-04 18:13 | 51.07830 | 8.64485 | 26499 ft | 433 kts | 293° |
| 2026-05-04 18:13 | 51.10498 | 8.55944 | 25674 ft | 430 kts | 293° |
| 2026-05-04 18:14 | 51.11814 | 8.51711 | 25274 ft | 428 kts | 293° |
| 2026-05-04 18:14 | 51.13124 | 8.47489 | 24876 ft | 426 kts | 293° |
| 2026-05-04 18:14 | 51.14434 | 8.43258 | 24469 ft | 423 kts | 293° |
| 2026-05-04 18:15 | 51.17011 | 8.34904 | 23685 ft | 420 kts | 292° |
| 2026-05-04 18:15 | 51.19556 | 8.26619 | 22926 ft | 416 kts | 292° |
| 2026-05-04 18:15 | 51.20809 | 8.22528 | 22543 ft | 414 kts | 292° |
| 2026-05-04 18:16 | 51.22074 | 8.18393 | 22162 ft | 413 kts | 292° |
| 2026-05-04 18:16 | 51.23316 | 8.14333 | 21761 ft | 411 kts | 292° |
| 2026-05-04 18:16 | 51.24559 | 8.10262 | 21276 ft | 408 kts | 293° |
| 2026-05-04 18:17 | 51.27020 | 8.02185 | 20255 ft | 402 kts | 293° |
| 2026-05-04 18:17 | 51.28221 | 7.98229 | 19746 ft | 399 kts | 293° |
| 2026-05-04 18:17 | 51.30613 | 7.90331 | 18720 ft | 394 kts | 293° |
| 2026-05-04 18:18 | 51.31664 | 7.86328 | 18349 ft | 392 kts | 284° |
| 2026-05-04 18:18 | 51.32288 | 7.82120 | 18106 ft | 391 kts | 279° |
| 2026-05-04 18:18 | 51.32808 | 7.77841 | 17857 ft | 390 kts | 279° |
| 2026-05-04 18:18 | 51.33321 | 7.73641 | 17623 ft | 383 kts | 278° |
| 2026-05-04 18:19 | 51.34349 | 7.65684 | 17083 ft | 351 kts | 280° |
| 2026-05-04 18:19 | 51.34848 | 7.61935 | 16772 ft | 334 kts | 280° |
| 2026-05-04 18:19 | 51.35320 | 7.58404 | 16343 ft | 325 kts | 280° |
| 2026-05-04 18:20 | 51.35788 | 7.54918 | 15998 ft | 316 kts | 280° |
| 2026-05-04 18:20 | 51.36247 | 7.51514 | 15583 ft | 310 kts | 280° |
| 2026-05-04 18:20 | 51.36694 | 7.48175 | 15088 ft | 308 kts | 281° |
| 2026-05-04 18:20 | 51.37140 | 7.44840 | 14561 ft | 307 kts | 281° |
| 2026-05-04 18:21 | 51.37587 | 7.41505 | 13651 ft | 314 kts | 281° |
| 2026-05-04 18:21 | 51.38042 | 7.38109 | 12710 ft | 319 kts | 281° |
| 2026-05-04 18:21 | 51.38508 | 7.34643 | 11898 ft | 315 kts | 279° |
| 2026-05-04 18:21 | 51.39204 | 7.31422 | 11153 ft | 313 kts | 299° |
| 2026-05-04 18:22 | 51.40642 | 7.28845 | 10438 ft | 312 kts | 319° |
| 2026-05-04 18:22 | 51.42370 | 7.26826 | 10041 ft | 297 kts | 322° |
| 2026-05-04 18:22 | 51.44040 | 7.25015 | 9535 ft | 289 kts | 323° |
| 2026-05-04 18:22 | 51.45669 | 7.23225 | 8898 ft | 284 kts | 317° |
| 2026-05-04 18:23 | 51.46865 | 7.20829 | 8208 ft | 276 kts | 291° |
| 2026-05-04 18:23 | 51.47227 | 7.17897 | 7550 ft | 267 kts | 263° |
| 2026-05-04 18:23 | 51.46870 | 7.15071 | 6941 ft | 261 kts | 250° |
| 2026-05-04 18:23 | 51.46102 | 7.12453 | 6262 ft | 258 kts | 237° |
| 2026-05-04 18:24 | 51.45126 | 7.10086 | 5582 ft | 258 kts | 234° |
| 2026-05-04 18:24 | 51.44093 | 7.07769 | 4928 ft | 256 kts | 233° |
| 2026-05-04 18:24 | 51.43048 | 7.05538 | 4404 ft | 249 kts | 232° |
| 2026-05-04 18:24 | 51.42014 | 7.03377 | 4051 ft | 241 kts | 232° |
| 2026-05-04 18:25 | 51.40998 | 7.01266 | 3733 ft | 238 kts | 231° |
| 2026-05-04 18:25 | 51.40005 | 6.99206 | 3414 ft | 227 kts | 231° |
| 2026-05-04 18:25 | 51.39061 | 6.97243 | 3117 ft | 222 kts | 232° |
| 2026-05-04 18:25 | 51.38141 | 6.95328 | 2820 ft | 213 kts | 232° |
| 2026-05-04 18:26 | 51.37264 | 6.93497 | 2592 ft | 204 kts | 231° |
| 2026-05-04 18:26 | 51.36426 | 6.91749 | 2356 ft | 190 kts | 232° |
| 2026-05-04 18:26 | 51.35646 | 6.90118 | 2068 ft | 181 kts | 232° |
| 2026-05-04 18:26 | 51.34905 | 6.88567 | 1808 ft | 169 kts | 232° |
| 2026-05-04 18:27 | 51.34224 | 6.87144 | 1599 ft | 155 kts | 232° |
| 2026-05-04 18:27 | 51.33604 | 6.85840 | 1370 ft | 145 kts | 232° |
| 2026-05-04 18:27 | 51.32997 | 6.84560 | 1199 ft | 145 kts | 231° |
| 2026-05-04 18:27 | 51.32386 | 6.83292 | 1055 ft | 143 kts | 231° |
| 2026-05-04 18:28 | 51.31780 | 6.82018 | 877 ft | 143 kts | 232° |
| 2026-05-04 18:28 | 51.31179 | 6.80759 | 688 ft | 144 kts | 231° |
| 2026-05-04 18:28 | 51.30565 | 6.79469 | 474 ft | 145 kts | 232° |
| 2026-05-04 18:28 | 51.29957 | 6.78211 | 260 ft | 144 kts | 230° |
| 2026-05-04 18:29 | 51.29364 | 6.76966 | 128 ft | 133 kts | 231° |
| 2026-05-04 18:29 | 51.28971 | 6.76136 | 124 ft | 58 kts | 232° |
| 2026-05-04 18:29 | 51.28743 | 6.75743 | 122 ft | 37 kts | 211° |
| 2026-05-04 18:29 | 51.28575 | 6.75685 | 120 ft | 17 kts | 170° |
| 2026-05-04 18:30 | 51.28412 | 6.75837 | 120 ft | 10 kts | 143° |
| 2026-05-04 18:30 | 51.28353 | 6.75907 | 120 ft | 10 kts | 143° |
| 2026-05-04 18:30 | 51.28291 | 6.75983 | 119 ft | 10 kts | 143° |
| 2026-05-04 18:31 | 51.28240 | 6.76039 | 119 ft | 8 kts | 147° |
| 2026-05-04 18:31 | 51.28226 | 6.76053 | 119 ft | 0 kts | 147° |
| 2026-05-04 18:32 | 51.28225 | 6.76054 | 119 ft | 1 kts | 147° |
| 2026-05-04 18:32 | 51.28211 | 6.76069 | 119 ft | 3 kts | 143° |
| 2026-05-04 18:32 | 51.28195 | 6.76108 | 120 ft | 4 kts | 105° |
| 2026-05-04 18:32 | 51.28199 | 6.76162 | 120 ft | 5 kts | 63° |
| 2026-05-04 18:33 | 51.28229 | 6.76232 | 121 ft | 9 kts | 54° |
| 2026-05-04 18:33 | 51.28277 | 6.76333 | 121 ft | 13 kts | 53° |
| 2026-05-04 18:33 | 51.28331 | 6.76447 | 122 ft | 12 kts | 53° |
| 2026-05-04 18:33 | 51.28376 | 6.76540 | 124 ft | 9 kts | 53° |
| 2026-05-04 18:34 | 51.28392 | 6.76574 | 125 ft | 2 kts | 53° |
| 2026-05-04 18:34 | 51.28399 | 6.76589 | 125 ft | 1 kts | 53° |
| 2026-05-04 18:34 | 51.28409 | 6.76611 | 125 ft | 4 kts | 59° |
| 2026-05-04 18:34 | 51.28407 | 6.76675 | 125 ft | 8 kts | 128° |
| 2026-05-04 18:35 | 51.28357 | 6.76743 | 126 ft | 10 kts | 142° |
| 2026-05-04 18:35 | 51.28295 | 6.76820 | 128 ft | 11 kts | 142° |
| 2026-05-04 18:35 | 51.28230 | 6.76847 | 131 ft | 9 kts | 186° |
| 2026-05-04 18:35 | 51.28166 | 6.76835 | 133 ft | 8 kts | 188° |
| 2026-05-04 18:36 | 51.28154 | 6.76786 | 133 ft | 5 kts | 268° |
| 2026-05-04 18:36 | 51.28155 | 6.76742 | 132 ft | 2 kts | 274° |
| 2026-05-04 18:36 | 51.28155 | 6.76733 | 132 ft | 0 kts | 274° |